Date,TemperatureHighF,TemperatureAvgF,TemperatureLowF,DewpointHighF,DewpointAvgF,DewpointLowF,HumidityHigh,HumidityAvg,HumidityLow,PressureMaxIn,PressureMinIn,WindSpeedMaxMPH,WindSpeedAvgMPH,GustSpeedMaxMPH,PrecipitationSumIn
2012-12-1,68,61,53,64,52,42,98,76,40,30.28,30.16,9,2,9,0.00
2012-12-2,67,62,61,57,49,38,83,64,35,30.22,30.16,6,3,9,0.08
2012-12-3,67,63,60,64,57,45,98,83,45,30.28,30.16,8,4,11,0.29
2012-12-4,61,58,56,40,40,39,53,49,45,30.25,30.22,3,0,4,0.00
2012-12-5,64,59,55,49,42,38,68,55,39,30.13,30.07,6,1,8,0.00
2012-12-6,68,60,52,50,44,38,72,58,35,30.10,29.96,8,1,10,0.00
2012-12-7,65,57,50,55,44,37,84,64,36,30.04,29.99,6,1,6,0.00
2012-12-8,67,58,50,58,43,35,88,61,34,30.07,29.99,6,2,9,0.00
2012-12-9,65,58,49,44,37,35,60,47,35,30.19,30.04,8,2,9,0.00
2012-12-10,70,55,46,52,40,35,82,60,32,30.22,30.13,8,2,9,0.00
2012-12-11,58,57,54,46,44,43,68,63,56,30.07,30.04,0,0,4,0.00
2012-12-12,64,58,54,46,38,33,70,49,34,30.07,29.93,9,2,11,0.12
2012-12-13,62,56,49,52,37,25,82,51,34,29.93,29.84,11,3,13,0.50
2012-12-14,61,51,41,41,29,26,65,44,34,30.10,29.84,12,2,15,0.04
2012-12-15,62,53,44,35,30,27,56,42,34,30.19,30.07,13,4,14,0.00
2012-12-16,61,56,54,41,33,28,57,42,34,30.28,30.19,8,3,10,0.00
2012-12-17,66,58,55,49,39,34,70,50,34,30.28,30.13,8,2,9,0.00
2012-12-18,62,57,50,55,35,24,82,45,34,30.13,29.93,18,7,24,0.08
2012-12-19,62,49,38,34,24,15,39,37,34,30.37,30.13,17,4,22,0.00
2012-12-20,66,48,34,36,23,12,41,37,33,30.34,30.19,8,2,10,0.00
2012-12-21,65,47,35,35,24,14,50,40,33,30.25,30.16,6,1,8,0.00
2012-12-22,63,49,38,36,29,22,60,47,34,30.34,30.19,8,2,10,0.00
2012-12-23,64,57,50,48,38,34,70,49,35,30.37,30.25,10,3,11,0.00
2012-12-24,65,58,49,58,42,35,89,58,36,30.28,30.13,11,3,13,0.75
2012-12-25,62,54,47,48,38,31,79,56,34,30.25,30.13,5,1,7,0.00
2012-12-26,63,55,48,46,34,26,73,47,34,30.16,30.10,14,5,17,0.00
2012-12-27,66,52,40,36,27,20,52,38,33,30.28,30.13,13,3,15,0.00
2012-12-28,64,50,38,35,27,22,51,42,34,30.37,30.28,6,1,8,0.00
2012-12-29,60,48,41,37,27,20,56,44,35,30.31,30.19,8,2,11,0.17
2012-12-30,60,45,36,44,28,24,76,54,35,30.25,30.01,8,1,58,0.04
2012-12-31,59,46,34,44,28,23,76,51,35,30.31,30.16,9,2,11,0.00